Time;durP1;ratioP1;P1;durP2;ratioP2;P2;SDS_P1;SDS_P2;PMS_P1;PMS_P2;Temp;Humidity;BMP_temperature;BMP_pressure;BME280_temperature;BME280_humidity;BME280_pressure;Samples;Min_cycle;Max_cycle;Signal;HPM_P1;HPM_P2
2022/04/03 00:06:47;;;;;;;10.65;6.03;;;9.00;46.10;;;;;;6224229;22;1341340;-86
2022/04/03 00:27:52;;;;;;;10.10;5.85;;;8.90;46.70;;;;;;6042027;23;20330;-89
2022/04/03 00:30:19;;;;;;;11.25;6.43;;;8.90;46.40;;;;;;6063368;23;20127;-90
2022/04/03 00:32:46;;;;;;;12.07;6.82;;;8.80;47.00;;;;;;6063521;23;20031;-90
2022/04/03 00:35:16;;;;;;;13.88;6.55;;;8.80;46.30;;;;;;6063155;23;20030;-90
2022/04/03 00:37:44;;;;;;;12.18;6.30;;;8.70;46.30;;;;;;6062667;23;20027;-90
2022/04/03 00:40:11;;;;;;;12.38;6.60;;;8.60;47.20;;;;;;6059850;23;20019;-90
2022/04/03 00:42:38;;;;;;;12.30;6.85;;;8.60;46.80;;;;;;6057850;23;20027;-89
2022/04/03 00:45:09;;;;;;;10.95;6.18;;;8.70;46.90;;;;;;6055649;23;20027;-90
2022/04/03 00:47:36;;;;;;;11.20;6.32;;;8.50;46.80;;;;;;6053840;23;20030;-89
2022/04/03 00:50:04;;;;;;;16.67;6.28;;;8.60;47.20;;;;;;6053192;23;20031;-89
2022/04/03 00:52:31;;;;;;;9.18;6.03;;;8.50;47.00;;;;;;6057397;23;20019;-89
2022/04/03 00:54:58;;;;;;;11.43;6.13;;;8.60;47.30;;;;;;6056553;23;20031;-89
2022/04/03 00:57:27;;;;;;;11.48;6.00;;;8.60;47.30;;;;;;6055997;23;20035;-90
2022/04/03 00:59:55;;;;;;;11.63;6.00;;;8.40;47.00;;;;;;6055405;23;20123;-88
2022/04/03 01:02:24;;;;;;;12.07;5.60;;;8.30;47.40;;;;;;6095261;23;20439;-88
2022/04/03 01:04:51;;;;;;;18.10;6.03;;;8.40;47.50;;;;;;6161404;23;20026;-87
2022/04/03 01:07:19;;;;;;;10.55;6.40;;;8.40;47.60;;;;;;6176111;23;20009;-88
2022/04/03 01:09:46;;;;;;;7.82;5.40;;;8.40;47.80;;;;;;6182235;23;20009;-88
2022/04/03 01:12:13;;;;;;;10.95;5.72;;;8.40;47.80;;;;;;6183252;23;20036;-87
2022/04/03 01:14:42;;;;;;;11.00;6.30;;;8.50;47.60;;;;;;6183350;23;20014;-88
2022/04/03 01:17:13;;;;;;;11.60;6.03;;;8.50;48.30;;;;;;6183302;23;20014;-89
2022/04/03 01:19:42;;;;;;;10.75;6.45;;;8.50;48.00;;;;;;6183717;23;20029;-88
2022/04/03 01:22:10;;;;;;;11.73;6.30;;;8.50;48.20;;;;;;6183700;23;20017;-89
2022/04/03 01:24:37;;;;;;;9.60;6.47;;;8.50;48.30;;;;;;6165146;23;20025;-89
2022/04/03 01:27:06;;;;;;;9.68;5.55;;;8.50;48.10;;;;;;6172194;23;20208;-89
2022/04/03 01:29:33;;;;;;;12.57;6.25;;;8.40;47.80;;;;;;6173315;23;20037;-89
2022/04/03 01:32:00;;;;;;;11.35;5.97;;;8.40;47.80;;;;;;6179311;23;20029;-89
2022/04/03 01:34:27;;;;;;;9.32;5.72;;;8.40;47.80;;;;;;6182722;23;20037;-89
2022/04/03 01:36:53;;;;;;;12.68;6.05;;;8.40;48.10;;;;;;6183654;23;20022;-89
2022/04/03 01:39:21;;;;;;;11.25;6.57;;;8.40;48.40;;;;;;6183001;23;20071;-88
2022/04/03 01:41:48;;;;;;;14.30;6.50;;;8.40;48.10;;;;;;6182372;23;20076;-89
2022/04/03 01:44:16;;;;;;;10.13;5.90;;;8.40;48.10;;;;;;6183057;23;20025;-89
2022/04/03 01:46:43;;;;;;;11.40;6.25;;;8.40;48.10;;;;;;6183278;23;20052;-89
2022/04/03 01:49:11;;;;;;;11.32;5.88;;;8.50;48.20;;;;;;6180650;23;20084;-89
2022/04/03 01:51:38;;;;;;;14.27;5.85;;;8.40;48.20;;;;;;6175908;23;20029;-89
2022/04/03 01:54:05;;;;;;;9.45;5.88;;;8.50;48.40;;;;;;6178578;23;20029;-89
2022/04/03 01:56:34;;;;;;;9.45;6.25;;;8.50;48.40;;;;;;6180666;23;20025;-89
2022/04/03 01:59:01;;;;;;;10.68;6.18;;;8.40;48.30;;;;;;6175618;23;20021;-89
2022/04/03 02:01:30;;;;;;;10.52;6.10;;;8.50;48.40;;;;;;6173457;23;20153;-89
2022/04/03 02:03:57;;;;;;;9.52;6.15;;;8.50;48.30;;;;;;6174469;23;20060;-89
2022/04/03 02:06:24;;;;;;;8.75;6.00;;;8.40;48.40;;;;;;6171917;23;20446;-89
2022/04/03 02:08:51;;;;;;;10.80;5.93;;;8.40;48.50;;;;;;6171912;23;20026;-89
2022/04/03 02:11:18;;;;;;;13.57;6.60;;;8.40;48.50;;;;;;6169991;23;20088;-89
2022/04/03 02:13:45;;;;;;;13.50;6.78;;;8.40;48.50;;;;;;6160874;23;20040;-89
2022/04/03 02:16:12;;;;;;;12.30;6.55;;;8.40;48.70;;;;;;6160384;23;20026;-90
2022/04/03 02:18:41;;;;;;;15.35;7.43;;;8.40;48.80;;;;;;6159551;23;20021;-89
2022/04/03 02:21:08;;;;;;;11.52;6.68;;;8.50;49.20;;;;;;6160420;23;20092;-88
2022/04/03 02:23:35;;;;;;;10.82;5.97;;;8.50;49.30;;;;;;6157237;23;20045;-90
2022/04/03 02:26:02;;;;;;;16.90;6.38;;;8.50;48.70;;;;;;6157719;23;20040;-89
2022/04/03 02:28:29;;;;;;;13.50;6.57;;;8.50;48.80;;;;;;6158651;23;20018;-89
2022/04/03 02:30:56;;;;;;;12.75;6.75;;;8.60;48.90;;;;;;6160196;23;20017;-90
2022/04/03 02:33:23;;;;;;;11.98;6.68;;;8.60;48.80;;;;;;6164698;23;20395;-90
2022/04/03 02:35:52;;;;;;;12.57;6.35;;;8.60;48.80;;;;;;6213014;23;20028;-90
2022/04/03 02:38:19;;;;;;;10.43;6.15;;;8.50;48.80;;;;;;6223773;23;20029;-89
2022/04/03 02:40:46;;;;;;;12.98;6.80;;;8.50;49.00;;;;;;6221243;23;20055;-89
2022/04/03 02:43:13;;;;;;;10.30;6.57;;;8.50;48.90;;;;;;6220897;23;20024;-89
2022/04/03 02:45:41;;;;;;;12.43;6.38;;;8.50;48.80;;;;;;6220828;23;20020;-90
2022/04/03 02:48:09;;;;;;;11.88;6.07;;;8.50;48.90;;;;;;6221942;23;20039;-90
2022/04/03 02:50:36;;;;;;;10.50;6.07;;;8.50;49.10;;;;;;6221835;23;20021;-88
2022/04/03 02:53:06;;;;;;;10.57;5.63;;;8.50;49.20;;;;;;6221523;23;20044;-88
2022/04/03 02:55:33;;;;;;;10.15;5.85;;;8.50;49.50;;;;;;6220044;23;20052;-87
2022/04/03 02:58:00;;;;;;;11.13;6.20;;;8.50;49.20;;;;;;6223578;23;20024;-88
2022/04/03 03:00:28;;;;;;;11.63;6.25;;;8.60;49.20;;;;;;6223460;23;20031;-88
2022/04/03 03:02:56;;;;;;;11.68;6.50;;;8.60;49.20;;;;;;6227046;23;20055;-87
2022/04/03 03:05:23;;;;;;;11.57;5.78;;;8.50;48.90;;;;;;6229702;23;20104;-89
2022/04/03 03:07:50;;;;;;;10.63;5.75;;;8.60;49.20;;;;;;6229880;23;20051;-88
2022/04/03 03:10:21;;;;;;;9.82;5.72;;;8.60;49.30;;;;;;6230977;23;20050;-88
2022/04/03 03:12:48;;;;;;;11.65;6.20;;;8.60;49.10;;;;;;6226115;23;20016;-88
2022/04/03 03:15:16;;;;;;;11.05;6.32;;;8.50;48.80;;;;;;6226795;23;20028;-88
2022/04/03 03:17:43;;;;;;;10.13;5.55;;;8.50;49.10;;;;;;6224183;23;20024;-88
2022/04/03 03:20:11;;;;;;;9.70;6.40;;;8.40;49.20;;;;;;6223251;23;20037;-88
2022/04/03 03:22:39;;;;;;;15.55;6.60;;;8.40;49.30;;;;;;6222963;23;20090;-88
2022/04/03 03:25:07;;;;;;;10.35;5.97;;;8.50;49.30;;;;;;6226567;23;20334;-88
2022/04/03 03:27:38;;;;;;;10.80;6.07;;;8.50;49.40;;;;;;6228734;23;20068;-88
2022/04/03 03:30:06;;;;;;;10.75;5.68;;;8.40;49.20;;;;;;6230827;23;20020;-88
2022/04/03 03:32:33;;;;;;;10.93;6.03;;;8.40;49.40;;;;;;6230522;23;20055;-88
2022/04/03 03:35:01;;;;;;;11.13;6.00;;;8.40;49.60;;;;;;6235880;23;20024;-88
2022/04/03 03:37:28;;;;;;;11.43;6.10;;;8.30;49.30;;;;;;6234637;23;20024;-88
2022/04/03 03:39:55;;;;;;;13.65;6.07;;;8.20;49.80;;;;;;6237308;23;20023;-88
2022/04/03 03:42:23;;;;;;;11.95;5.72;;;8.20;49.80;;;;;;6234331;23;20029;-88
2022/04/03 03:44:52;;;;;;;10.48;5.85;;;8.30;49.90;;;;;;6233093;23;20087;-88
2022/04/03 03:47:19;;;;;;;14.68;6.72;;;8.30;49.80;;;;;;6232469;23;20469;-88
2022/04/03 03:49:47;;;;;;;10.68;6.35;;;8.30;49.80;;;;;;6233238;23;20028;-89
2022/04/03 03:52:14;;;;;;;14.50;6.82;;;8.30;49.90;;;;;;6232243;23;20024;-89
2022/04/03 03:54:41;;;;;;;12.55;6.75;;;8.30;50.00;;;;;;6228606;23;20056;-89
2022/04/03 03:57:09;;;;;;;12.68;7.10;;;8.10;50.10;;;;;;6224037;23;20273;-89
2022/04/03 03:59:36;;;;;;;15.98;7.35;;;8.00;50.40;;;;;;6223978;23;20096;-89
2022/04/03 04:02:05;;;;;;;10.45;6.30;;;7.90;50.60;;;;;;6222895;23;20035;-89
2022/04/03 04:04:32;;;;;;;9.93;6.15;;;7.80;51.20;;;;;;6225702;23;20043;-89
2022/04/03 04:06:59;;;;;;;14.38;6.35;;;7.80;50.90;;;;;;6226193;23;20036;-89
2022/04/03 04:09:26;;;;;;;13.13;6.22;;;8.00;50.90;;;;;;6226302;23;20040;-89
2022/04/03 04:11:53;;;;;;;10.60;5.38;;;7.90;50.50;;;;;;6226378;23;20079;-89
2022/04/03 04:14:20;;;;;;;13.23;6.10;;;7.80;50.70;;;;;;6225891;23;20024;-89
2022/04/03 04:16:47;;;;;;;10.27;6.18;;;7.90;50.70;;;;;;6225231;23;20024;-89
2022/04/03 04:19:16;;;;;;;11.00;6.20;;;8.00;50.60;;;;;;6223776;23;20032;-89
2022/04/03 04:21:43;;;;;;;13.95;6.00;;;8.10;50.60;;;;;;6226152;23;20112;-90
2022/04/03 04:24:11;;;;;;;10.25;5.50;;;8.10;50.60;;;;;;6232831;23;20033;-89
2022/04/03 04:26:38;;;;;;;7.75;5.57;;;8.10;50.10;;;;;;6235208;23;20055;-90
2022/04/03 04:29:05;;;;;;;13.88;6.03;;;8.10;50.30;;;;;;6234810;23;20021;-88
2022/04/03 04:31:32;;;;;;;11.02;5.85;;;8.00;50.10;;;;;;6229709;23;20021;-89
2022/04/03 04:33:59;;;;;;;15.38;6.00;;;8.10;50.20;;;;;;6230669;23;20016;-89
2022/04/03 04:36:28;;;;;;;8.50;5.18;;;8.10;50.20;;;;;;6230535;23;20029;-89
2022/04/03 04:38:57;;;;;;;11.18;5.40;;;8.10;49.90;;;;;;6227132;23;20036;-89
2022/04/03 04:41:24;;;;;;;10.27;5.45;;;8.10;49.90;;;;;;6223387;23;20020;-88
2022/04/03 04:43:51;;;;;;;12.75;5.35;;;8.10;49.80;;;;;;6226768;23;20031;-89
2022/04/03 04:46:18;;;;;;;10.57;6.03;;;8.10;50.10;;;;;;6231059;23;20090;-88
2022/04/03 04:48:45;;;;;;;11.30;6.00;;;8.10;50.10;;;;;;6228886;23;20308;-88
2022/04/03 04:51:12;;;;;;;10.93;5.15;;;8.20;50.20;;;;;;6225958;23;20021;-88
2022/04/03 04:53:40;;;;;;;19.38;5.90;;;8.00;50.10;;;;;;6228288;23;20051;-89
2022/04/03 04:56:09;;;;;;;10.88;5.43;;;8.00;50.10;;;;;;6228347;23;20024;-89
2022/04/03 04:58:36;;;;;;;18.05;6.45;;;7.90;50.40;;;;;;6225130;23;20021;-89
2022/04/03 05:01:03;;;;;;;11.27;5.95;;;7.90;50.40;;;;;;6225200;23;20025;-88
2022/04/03 05:03:30;;;;;;;11.90;6.13;;;7.80;50.50;;;;;;6222863;23;20024;-88
2022/04/03 05:05:57;;;;;;;12.10;6.10;;;7.70;50.70;;;;;;6224943;23;20055;-88
2022/04/03 05:08:25;;;;;;;12.43;5.75;;;7.80;50.80;;;;;;6224483;23;20090;-88
2022/04/03 05:10:54;;;;;;;14.27;6.20;;;7.70;50.60;;;;;;6230503;23;20040;-88
2022/04/03 05:13:25;;;;;;;8.85;5.50;;;7.70;50.90;;;;;;6228083;23;20073;-88
2022/04/03 05:15:53;;;;;;;12.13;6.30;;;7.80;51.10;;;;;;6231099;23;20029;-89
2022/04/03 05:18:20;;;;;;;11.00;6.20;;;7.70;51.10;;;;;;6234591;23;20024;-89
2022/04/03 05:20:48;;;;;;;14.60;6.20;;;7.70;51.70;;;;;;6229705;23;20300;-89
2022/04/03 05:23:16;;;;;;;12.93;5.93;;;7.80;51.20;;;;;;6223116;23;20438;-89
2022/04/03 05:25:43;;;;;;;10.48;4.95;;;7.70;51.70;;;;;;6223307;23;20020;-89
2022/04/03 05:28:11;;;;;;;13.32;6.60;;;7.70;51.00;;;;;;6222312;23;20024;-88
2022/04/03 05:30:38;;;;;;;11.05;5.63;;;7.60;51.20;;;;;;6224503;23;20040;-88
2022/04/03 05:33:05;;;;;;;11.10;5.97;;;7.60;51.10;;;;;;6224844;23;20521;-87
2022/04/03 05:35:33;;;;;;;15.90;5.45;;;7.60;51.20;;;;;;6224075;23;20024;-87
2022/04/03 05:38:00;;;;;;;13.13;6.13;;;7.60;51.90;;;;;;6222080;23;20028;-87
2022/04/03 05:40:27;;;;;;;17.83;6.72;;;7.60;51.30;;;;;;6222513;23;20024;-87
2022/04/03 05:42:54;;;;;;;12.57;6.55;;;7.50;51.60;;;;;;6221830;23;20024;-87
2022/04/03 05:45:22;;;;;;;21.90;7.20;;;7.50;51.90;;;;;;6223949;23;20031;-87
2022/04/03 05:47:52;;;;;;;13.68;7.35;;;7.50;52.20;;;;;;6227789;23;20044;-87
2022/04/03 05:50:20;;;;;;;12.50;6.43;;;7.40;52.40;;;;;;6230700;23;20080;-88
2022/04/03 05:52:49;;;;;;;13.70;6.63;;;7.40;52.50;;;;;;6230217;23;20063;-89
2022/04/03 05:55:17;;;;;;;14.50;6.13;;;7.40;52.60;;;;;;6225900;23;20205;-89
2022/04/03 05:57:45;;;;;;;12.07;6.40;;;7.40;52.20;;;;;;6227337;23;20020;-89
2022/04/03 06:00:13;;;;;;;11.98;5.88;;;7.50;52.70;;;;;;6230891;23;20056;-89
2022/04/03 06:02:49;;;;;;;12.35;6.00;;;7.50;52.20;;;;;;6232352;23;20517;-89
2022/04/03 06:05:19;;;;;;;16.98;6.47;;;7.50;52.20;;;;;;6227131;23;20138;-88
2022/04/03 06:07:46;;;;;;;12.32;5.97;;;7.50;51.90;;;;;;6231066;23;20087;-88
2022/04/03 06:10:14;;;;;;;12.27;6.22;;;7.40;51.50;;;;;;6231990;23;20020;-89
2022/04/03 06:12:55;;;;;;;14.80;6.03;;;7.50;51.80;;;;;;6229471;23;20031;-89
2022/04/03 06:15:23;;;;;;;11.48;5.40;;;7.50;51.80;;;;;;6233324;23;20059;-89
2022/04/03 06:17:52;;;;;;;13.45;5.80;;;7.60;52.00;;;;;;6235131;23;20025;-90
2022/04/03 06:20:21;;;;;;;10.40;5.70;;;7.60;51.70;;;;;;6236077;23;20033;-90
2022/04/03 06:22:48;;;;;;;11.65;5.75;;;7.60;52.40;;;;;;6233882;23;20028;-90
2022/04/03 06:25:16;;;;;;;10.57;5.65;;;7.60;52.00;;;;;;6231478;23;20039;-90
2022/04/03 06:27:43;;;;;;;13.50;6.00;;;7.70;51.70;;;;;;6230707;23;20024;-89
2022/04/03 06:30:11;;;;;;;10.80;6.00;;;7.70;51.50;;;;;;6229719;23;20024;-90
2022/04/03 06:32:38;;;;;;;15.68;6.13;;;7.70;51.50;;;;;;6228098;23;20035;-89
2022/04/03 06:35:08;;;;;;;12.85;6.03;;;7.70;51.00;;;;;;6226005;23;20138;-89
2022/04/03 06:37:36;;;;;;;11.57;5.53;;;7.80;51.10;;;;;;6231365;23;20072;-90
2022/04/03 06:40:04;;;;;;;11.43;5.43;;;7.70;50.80;;;;;;6229908;23;20017;-90
2022/04/03 06:42:32;;;;;;;11.68;5.88;;;7.70;50.90;;;;;;6228897;23;20021;-89
2022/04/03 06:44:59;;;;;;;15.15;6.40;;;7.70;50.90;;;;;;6230442;23;20028;-89
2022/04/03 06:47:26;;;;;;;15.63;6.07;;;7.70;51.40;;;;;;6231377;23;20031;-90
2022/04/03 06:49:53;;;;;;;15.73;6.20;;;7.70;51.10;;;;;;6232523;23;20027;-90
2022/04/03 06:52:22;;;;;;;10.90;5.70;;;7.70;51.10;;;;;;6236169;23;20012;-91
2022/04/03 06:54:49;;;;;;;11.45;6.15;;;7.60;51.80;;;;;;6236961;23;20345;-88
2022/04/03 06:57:18;;;;;;;12.02;6.30;;;7.70;51.30;;;;;;6232583;23;20091;-88
2022/04/03 06:59:46;;;;;;;11.90;5.90;;;7.70;50.70;;;;;;6227082;23;20032;-87
2022/04/03 07:02:12;;;;;;;11.02;5.65;;;7.80;50.40;;;;;;6224007;23;20025;-88
2022/04/03 07:04:40;;;;;;;10.85;5.47;;;7.80;49.70;;;;;;6221754;23;20035;-88
2022/04/03 07:07:07;;;;;;;16.77;6.03;;;7.70;49.60;;;;;;6222545;23;20382;-89
2022/04/03 07:09:39;;;;;;;11.82;5.80;;;7.60;49.40;;;;;;6226763;23;20028;-88
2022/04/03 07:12:07;;;;;;;321.45;27.13;;;7.60;50.00;;;;;;6230090;23;20051;-88
2022/04/03 07:14:34;;;;;;;11.82;6.25;;;7.60;53.90;;;;;;6229703;23;20051;-89
2022/04/03 07:17:01;;;;;;;12.82;6.47;;;7.70;52.50;;;;;;6229919;23;20128;-88
2022/04/03 07:19:28;;;;;;;14.27;5.82;;;7.70;52.70;;;;;;6223152;23;20024;-89
2022/04/03 07:21:57;;;;;;;14.27;5.65;;;7.80;51.10;;;;;;6222017;23;20051;-88
2022/04/03 07:24:25;;;;;;;13.38;6.55;;;7.80;50.30;;;;;;6220776;23;20035;-88
2022/04/03 07:26:54;;;;;;;19.92;6.93;;;7.90;51.80;;;;;;6223515;23;20024;-88
2022/04/03 07:29:24;;;;;;;132.63;11.85;;;7.80;51.80;;;;;;6221836;23;20025;-88
2022/04/03 07:31:51;;;;;;;13.10;6.68;;;7.80;52.00;;;;;;6223603;23;20024;-89
2022/04/03 07:34:19;;;;;;;17.85;7.60;;;7.80;51.80;;;;;;6228904;23;20032;-90
2022/04/03 07:36:46;;;;;;;32.88;6.95;;;8.00;50.70;;;;;;6230238;23;20027;-90
2022/04/03 07:39:13;;;;;;;13.93;7.00;;;7.80;50.90;;;;;;6228293;23;20024;-90
2022/04/03 07:41:40;;;;;;;54.28;8.80;;;7.90;51.30;;;;;;6234585;23;20029;-89
2022/04/03 07:44:10;;;;;;;12.05;6.35;;;7.70;51.20;;;;;;6241789;22;20017;-90
2022/04/03 07:46:38;;;;;;;13.98;5.35;;;7.60;51.70;;;;;;6238225;22;20009;-90
2022/04/03 07:49:06;;;;;;;11.35;5.82;;;7.60;48.50;;;;;;6235582;23;20051;-89
2022/04/03 07:51:33;;;;;;;15.15;5.55;;;7.60;48.60;;;;;;6234539;23;20021;-89
2022/04/03 07:54:00;;;;;;;10.95;5.50;;;7.70;48.50;;;;;;6226865;23;20528;-84
2022/04/03 07:56:29;;;;;;;12.30;5.20;;;7.80;48.00;;;;;;6221571;23;20020;-82
2022/04/03 07:59:03;;;;;;;13.10;5.43;;;7.80;47.70;;;;;;6217490;23;20393;-81
2022/04/03 08:01:33;;;;;;;12.10;5.20;;;7.90;47.70;;;;;;6224852;23;20454;-84
2022/04/03 08:04:01;;;;;;;16.13;5.67;;;7.90;47.30;;;;;;6225402;23;20119;-77
2022/04/03 08:06:28;;;;;;;9.30;4.90;;;8.00;47.50;;;;;;6220661;23;20055;-78
2022/04/03 08:08:55;;;;;;;10.20;5.05;;;8.10;47.90;;;;;;6216900;23;20024;-79
2022/04/03 08:11:21;;;;;;;36.20;9.48;;;8.00;48.50;;;;;;6215482;23;20067;-77
2022/04/03 08:13:53;;;;;;;26.25;10.68;;;8.00;49.00;;;;;;6216806;23;20024;-81
2022/04/03 08:16:20;;;;;;;;;;;8.00;47.90;;;;;;6217894;23;20025;-81
2022/04/03 08:18:48;;;;;;;10.35;4.35;;;7.90;46.40;;;;;;6219307;23;19923;-80
2022/04/03 09:52:15;;;;;;;7.05;2.47;;;8.20;42.00;;;;;;6090025;23;20025;-81
2022/04/03 11:51:52;;;;;;;6.13;2.03;;;10.40;36.00;;;;;;6147457;23;20021;-76
2022/04/03 11:54:19;;;;;;;5.35;2.20;;;10.60;36.50;;;;;;6190196;23;20028;-78
2022/04/03 11:56:46;;;;;;;4.32;1.70;;;10.70;36.30;;;;;;6190517;23;20372;-79
2022/04/03 12:09:37;;;;;;;6.68;3.30;;;11.10;35.50;;;;;;6196569;23;19983;-87
2022/04/03 12:12:51;;;;;;;4.28;2.33;;;11.20;35.40;;;;;;6169881;23;20399;-86
2022/04/03 12:15:20;;;;;;;5.95;2.90;;;11.30;35.80;;;;;;6183560;23;20096;-80
2022/04/03 12:17:55;;;;;;;8.98;3.35;;;11.40;34.70;;;;;;6180271;23;20025;-81
2022/04/03 12:20:27;;;;;;;6.45;2.47;;;11.50;34.90;;;;;;6182442;23;20021;-81
2022/04/03 12:23:04;;;;;;;7.45;2.22;;;11.50;33.90;;;;;;6181959;23;20025;-82
2022/04/03 12:25:46;;;;;;;7.32;2.88;;;11.40;34.30;;;;;;6182824;23;20029;-83
2022/04/03 12:28:15;;;;;;;8.57;2.72;;;11.70;35.30;;;;;;6184345;23;20450;-82
2022/04/03 12:30:43;;;;;;;3.53;2.22;;;11.70;33.90;;;;;;6178226;23;20021;-84
2022/04/03 12:33:15;;;;;;;4.53;2.03;;;11.70;33.40;;;;;;6181860;23;20025;-83
2022/04/03 12:35:46;;;;;;;5.40;2.35;;;11.80;34.00;;;;;;6182306;23;20029;-82
2022/04/03 12:38:14;;;;;;;4.15;2.45;;;11.70;33.60;;;;;;6185508;23;20121;-81
2022/04/03 12:40:53;;;;;;;6.00;1.98;;;11.50;33.80;;;;;;6187273;23;20029;-82
2022/04/03 12:43:22;;;;;;;4.85;1.95;;;11.10;33.80;;;;;;6185984;23;20021;-80
2022/04/03 12:46:34;;;;;;;2.78;2.25;;;11.20;34.80;;;;;;6182958;23;20025;-82
2022/04/03 12:49:01;;;;;;;3.92;2.20;;;11.20;34.90;;;;;;6179845;23;20037;-77
2022/04/03 12:51:28;;;;;;;5.28;2.30;;;11.10;35.30;;;;;;6182259;23;20036;-80
2022/04/03 12:53:57;;;;;;;5.07;2.20;;;11.20;35.60;;;;;;6167573;23;20044;-79
2022/04/03 12:58:24;;;;;;;7.80;2.15;;;11.20;34.10;;;;;;6175203;23;404693;-78
2022/04/03 12:59:20;;;;;;;5.20;2.30;;;11.20;34.20;;;;;;6214963;23;20025;-80
2022/04/03 13:01:52;;;;;;;3.92;2.55;;;11.40;35.60;;;;;;6214225;23;20040;-79
2022/04/03 13:04:30;;;;;;;4.03;2.30;;;11.30;34.70;;;;;;6213793;23;20502;-79
2022/04/03 13:06:57;;;;;;;4.75;2.83;;;11.40;35.60;;;;;;6212541;23;20025;-79
2022/04/03 13:09:24;;;;;;;5.75;2.75;;;11.40;35.70;;;;;;6213524;23;20135;-79
2022/04/03 13:11:54;;;;;;;4.18;2.60;;;11.50;35.40;;;;;;6212529;23;20027;-79
2022/04/03 13:14:24;;;;;;;5.63;2.40;;;11.10;34.80;;;;;;6213753;23;20044;-80
2022/04/03 13:44:42;;;;;;;5.25;1.83;;;11.90;34.50;;;;;;6178724;23;20351;-86
2022/04/03 13:47:10;;;;;;;5.75;2.47;;;11.60;34.30;;;;;;6214759;23;20115;-79
2022/04/03 13:49:37;;;;;;;51.70;26.10;;;11.50;33.80;;;;;;6213159;23;20020;-79
2022/04/03 13:52:04;;;;;;;4.78;2.70;;;11.60;35.80;;;;;;6212711;23;20031;-77
2022/04/03 13:54:31;;;;;;;8.68;2.50;;;11.70;34.30;;;;;;6212991;23;20032;-77
2022/04/03 13:56:58;;;;;;;4.10;2.25;;;11.90;34.00;;;;;;6212704;23;20028;-78
2022/04/03 14:03:42;;;;;;;4.63;2.20;;;11.70;34.40;;;;;;6160371;23;20033;-87
2022/04/03 14:11:22;;;;;;;2.72;2.10;;;12.00;34.90;;;;;;6167369;22;20060;-80
2022/04/03 14:13:55;;;;;;;3.95;2.00;;;12.20;34.10;;;;;;6222873;23;20032;-80
2022/04/03 14:16:24;;;;;;;4.07;2.30;;;12.40;34.40;;;;;;6211712;23;20027;-80
2022/04/03 14:18:51;;;;;;;2.88;2.05;;;12.70;34.10;;;;;;6213555;23;20360;-79
2022/04/03 14:21:23;;;;;;;6.35;2.50;;;12.90;32.80;;;;;;6213029;23;20084;-80
2022/04/03 14:23:51;;;;;;;3.58;2.30;;;12.80;31.80;;;;;;6213622;23;20024;-79
2022/04/03 14:26:21;;;;;;;4.15;2.20;;;12.70;31.90;;;;;;6218119;23;20078;-80
2022/04/03 14:28:51;;;;;;;4.03;2.10;;;12.50;31.90;;;;;;6237974;22;20051;-79
2022/04/03 14:31:18;;;;;;;2.83;2.10;;;12.50;32.20;;;;;;6224624;23;20009;-80
2022/04/03 14:33:51;;;;;;;2.75;2.38;;;12.60;33.40;;;;;;6251845;23;20024;-79
2022/04/03 14:36:21;;;;;;;4.03;2.10;;;12.80;33.40;;;;;;6218191;23;20094;-79
2022/04/03 14:38:48;;;;;;;8.43;2.47;;;13.00;32.90;;;;;;6217318;23;20063;-79
2022/04/03 14:41:15;;;;;;;7.00;2.90;;;12.90;31.40;;;;;;6217391;23;20024;-79
2022/04/03 14:43:42;;;;;;;3.72;2.20;;;12.80;31.80;;;;;;6214734;23;20024;-79
2022/04/03 14:46:12;;;;;;;3.22;2.17;;;12.70;31.50;;;;;;6220549;23;20055;-80
2022/04/03 14:48:39;;;;;;;7.60;2.60;;;12.70;31.90;;;;;;6231364;23;20032;-80
2022/04/03 14:51:07;;;;;;;8.05;3.08;;;12.70;31.80;;;;;;6239392;22;20020;-80
2022/04/03 14:53:34;;;;;;;3.65;2.38;;;12.60;31.90;;;;;;6238235;23;20055;-79
2022/04/03 14:56:07;;;;;;;6.32;2.90;;;12.40;32.40;;;;;;6241319;23;20017;-80
2022/04/03 14:58:34;;;;;;;5.47;2.83;;;12.40;33.60;;;;;;6241900;22;20017;-80
2022/04/03 15:01:02;;;;;;;4.57;2.15;;;12.40;33.70;;;;;;6239897;23;20028;-80
2022/04/03 15:03:35;;;;;;;8.52;4.20;;;12.50;34.30;;;;;;6240858;22;20028;-80
2022/04/03 15:06:04;;;;;;;8.07;4.20;;;12.60;34.00;;;;;;6246851;22;20024;-79
2022/04/03 15:08:46;;;;;;;10.63;4.38;;;12.70;32.80;;;;;;6242532;22;20020;-81
2022/04/03 15:11:13;;;;;;;4.63;3.10;;;12.80;33.40;;;;;;6227333;22;20029;-80
2022/04/03 15:13:40;;;;;;;7.32;2.88;;;12.90;33.50;;;;;;6240694;22;20019;-80
2022/04/03 15:16:07;;;;;;;3.85;2.65;;;12.90;32.30;;;;;;6237733;23;20028;-79
2022/04/03 15:18:37;;;;;;;10.80;3.75;;;12.90;32.80;;;;;;6238861;22;20020;-80
2022/04/03 15:21:04;;;;;;;6.47;2.80;;;12.50;32.80;;;;;;6239124;22;20020;-80
2022/04/03 15:23:34;;;;;;;5.53;2.70;;;12.30;33.10;;;;;;6239922;22;20009;-80
2022/04/03 15:26:01;;;;;;;3.83;2.50;;;12.00;33.10;;;;;;6235839;22;20124;-79
2022/04/03 15:28:28;;;;;;;8.95;3.13;;;11.90;32.90;;;;;;6221944;23;20153;-80
2022/04/03 15:30:56;;;;;;;6.10;2.40;;;11.90;33.00;;;;;;6222218;23;20024;-80
2022/04/03 15:33:23;;;;;;;4.68;3.03;;;11.90;33.20;;;;;;6221082;23;20021;-80
2022/04/03 15:35:52;;;;;;;7.88;2.40;;;11.70;32.90;;;;;;6219061;23;20024;-80
2022/04/03 15:38:19;;;;;;;5.10;2.67;;;11.90;33.70;;;;;;6216916;23;20090;-80
2022/04/03 15:40:46;;;;;;;3.72;2.33;;;12.10;33.30;;;;;;6214837;23;20025;-80
2022/04/03 15:43:15;;;;;;;3.20;2.47;;;12.20;33.30;;;;;;6214188;23;20044;-80
2022/04/03 15:45:44;;;;;;;5.40;2.90;;;12.30;33.60;;;;;;6216403;23;20024;-78
2022/04/03 15:48:11;;;;;;;4.13;2.53;;;12.40;32.80;;;;;;6216589;23;20052;-79
2022/04/03 15:50:38;;;;;;;4.75;2.83;;;12.10;33.30;;;;;;6212407;23;20106;-80
2022/04/03 15:53:07;;;;;;;3.90;2.75;;;12.10;34.50;;;;;;6213732;23;20300;-80
2022/04/03 15:55:34;;;;;;;10.73;3.33;;;12.10;35.40;;;;;;6212209;23;21502;-80
2022/04/03 15:58:03;;;;;;;5.15;3.00;;;12.00;35.50;;;;;;6212187;23;20060;-80
2022/04/03 16:00:31;;;;;;;6.07;3.30;;;11.90;35.40;;;;;;6222209;23;20438;-80
2022/04/03 16:03:01;;;;;;;8.38;3.15;;;11.90;36.70;;;;;;6213565;23;20040;-80
2022/04/03 16:05:28;;;;;;;9.88;3.30;;;11.80;36.20;;;;;;6212665;23;20028;-79
2022/04/03 16:07:55;;;;;;;8.43;3.20;;;11.50;38.10;;;;;;6211326;23;20148;-80
2022/04/03 16:10:26;;;;;;;8.77;3.13;;;11.50;37.10;;;;;;6212834;23;20020;-79
2022/04/03 16:12:58;;;;;;;4.65;2.90;;;11.40;36.50;;;;;;6217584;23;20047;-82
2022/04/03 16:16:08;;;;;;;5.47;3.47;;;11.50;35.80;;;;;;6215185;23;20033;-85
2022/04/03 16:18:36;;;;;;;6.40;3.75;;;11.50;35.50;;;;;;6210842;23;20378;-82
2022/04/03 16:24:51;;;;;;;;;;;;;;;;;;;;;
2022/04/03 16:27:52;;;;;;;;;;;;;;;;;;;;;
2022/04/03 16:30:22;;;;;;;8.05;3.50;;;11.70;37.20;;;;;;6107507;23;20117;-81
2022/04/03 16:32:53;;;;;;;8.05;3.40;;;11.90;36.70;;;;;;6123703;23;20037;-81
2022/04/03 16:35:38;;;;;;;;;;;;;;;;;;;;;
2022/04/03 16:38:06;;;;;;;13.00;4.55;;;12.00;35.10;;;;;;6110649;23;20133;-81
2022/04/03 16:40:43;;;;;;;5.43;3.42;;;11.80;34.60;;;;;;6124154;23;20030;-81
2022/04/03 16:43:21;;;;;;;7.63;3.40;;;11.70;34.80;;;;;;6127838;23;20084;-80
2022/04/03 16:45:49;;;;;;;7.90;3.55;;;11.70;34.90;;;;;;6126395;23;20497;-81
2022/04/03 16:48:16;;;;;;;4.55;3.30;;;11.50;35.10;;;;;;6111653;23;20026;-81
2022/04/03 16:50:58;;;;;;;8.60;4.18;;;11.50;35.30;;;;;;6122895;23;20040;-82
2022/04/03 16:53:43;;;;;;;7.65;4.20;;;11.40;35.00;;;;;;6121207;23;20030;-83
2022/04/03 16:56:10;;;;;;;8.63;5.22;;;11.60;35.60;;;;;;6121523;23;20025;-81
2022/04/03 16:58:42;;;;;;;5.95;3.83;;;11.90;36.00;;;;;;6120412;23;20042;-82
2022/04/03 17:01:16;;;;;;;6.15;3.47;;;13.00;35.60;;;;;;6171967;23;20063;-82
2022/04/03 17:06:35;;;;;;;5.03;3.10;;;15.30;30.40;;;;;;6217938;23;20063;-84
2022/04/03 17:09:10;;;;;;;4.88;3.05;;;16.50;29.20;;;;;;6213027;23;20029;-83
2022/04/03 17:12:08;;;;;;;4.60;3.33;;;17.60;28.40;;;;;;6212796;23;20028;-83
2022/04/03 17:18:44;;;;;;;4.53;3.28;;;18.30;26.70;;;;;;6221333;23;20024;-92
2022/04/03 19:54:32;;;;;;;12.05;5.10;;;10.30;42.00;;;;;;6192584;22;1820106;-90
2022/04/03 19:57:00;;;;;;;11.93;5.95;;;10.30;43.50;;;;;;6233983;23;20025;-90
2022/04/03 19:59:27;;;;;;;6.53;5.00;;;10.20;43.20;;;;;;6218368;23;20458;-91
2022/04/03 20:01:54;;;;;;;9.88;5.50;;;10.20;43.20;;;;;;6219033;23;20016;-91
2022/04/03 20:04:21;;;;;;;10.55;5.68;;;10.10;43.80;;;;;;6182213;23;20025;-84
2022/04/03 20:06:48;;;;;;;10.23;5.57;;;10.10;43.30;;;;;;6191220;23;20002;-91
2022/04/03 20:09:15;;;;;;;11.75;5.43;;;10.00;43.40;;;;;;6181082;23;20660;-84
2022/04/03 20:11:43;;;;;;;7.45;5.20;;;10.00;43.60;;;;;;6169241;23;20037;-88
2022/04/03 20:14:10;;;;;;;8.73;4.97;;;10.00;43.10;;;;;;6170497;23;20052;-87
2022/04/03 20:16:37;;;;;;;11.55;4.70;;;10.00;42.90;;;;;;6167459;23;20068;-87
2022/04/03 20:19:05;;;;;;;11.38;5.85;;;10.00;42.80;;;;;;6174190;23;20036;-87
2022/04/03 20:21:33;;;;;;;11.95;6.60;;;10.00;43.10;;;;;;6175035;23;20025;-89
2022/04/03 20:24:01;;;;;;;11.05;6.00;;;10.00;43.30;;;;;;6173061;23;20029;-86